sensor_id;sensor_type;location;lat;lon;timestamp;P1;durP1;ratioP1;P2;durP2;ratioP2
44987;SDS011;35735;52.226;21.254;2023-02-14T00:00:28;9.07;;;4.80;;
44987;SDS011;35735;52.226;21.254;2023-02-14T00:05:28;8.20;;;5.15;;
44987;SDS011;35735;52.226;21.254;2023-02-14T00:10:29;8.68;;;4.70;;
44987;SDS011;35735;52.226;21.254;2023-02-14T00:15:29;9.02;;;5.22;;
44987;SDS011;35735;52.226;21.254;2023-02-14T00:20:30;7.93;;;4.85;;
44987;SDS011;35735;52.226;21.254;2023-02-14T00:25:32;11.65;;;4.90;;
44987;SDS011;35735;52.226;21.254;2023-02-14T00:30:33;9.68;;;5.07;;
44987;SDS011;35735;52.226;21.254;2023-02-14T00:35:36;10.40;;;5.00;;
44987;SDS011;35735;52.226;21.254;2023-02-14T00:40:37;9.70;;;5.20;;
44987;SDS011;35735;52.226;21.254;2023-02-14T00:45:37;8.45;;;4.82;;
44987;SDS011;35735;52.226;21.254;2023-02-14T00:50:38;7.15;;;5.35;;
44987;SDS011;35735;52.226;21.254;2023-02-14T00:55:38;10.80;;;5.55;;
44987;SDS011;35735;52.226;21.254;2023-02-14T01:00:39;9.65;;;5.05;;
44987;SDS011;35735;52.226;21.254;2023-02-14T01:05:40;11.85;;;5.70;;
44987;SDS011;35735;52.226;21.254;2023-02-14T01:10:41;9.82;;;5.65;;
44987;SDS011;35735;52.226;21.254;2023-02-14T01:15:43;10.73;;;5.50;;
44987;SDS011;35735;52.226;21.254;2023-02-14T01:20:46;9.93;;;5.72;;
44987;SDS011;35735;52.226;21.254;2023-02-14T01:25:46;10.05;;;5.90;;
44987;SDS011;35735;52.226;21.254;2023-02-14T01:30:47;10.43;;;5.65;;
44987;SDS011;35735;52.226;21.254;2023-02-14T01:35:47;10.10;;;6.20;;
44987;SDS011;35735;52.226;21.254;2023-02-14T01:40:48;10.95;;;6.18;;
44987;SDS011;35735;52.226;21.254;2023-02-14T01:45:49;9.23;;;6.00;;
44987;SDS011;35735;52.226;21.254;2023-02-14T01:50:49;11.43;;;6.03;;
44987;SDS011;35735;52.226;21.254;2023-02-14T01:55:57;10.05;;;6.50;;
44987;SDS011;35735;52.226;21.254;2023-02-14T02:01:05;9.75;;;6.07;;
44987;SDS011;35735;52.226;21.254;2023-02-14T02:06:16;10.00;;;6.78;;
44987;SDS011;35735;52.226;21.254;2023-02-14T02:11:25;10.60;;;6.45;;
44987;SDS011;35735;52.226;21.254;2023-02-14T02:16:40;12.93;;;7.68;;
44987;SDS011;35735;52.226;21.254;2023-02-14T02:33:18;14.02;;;7.15;;
44987;SDS011;35735;52.226;21.254;2023-02-14T02:43:48;11.63;;;6.87;;
44987;SDS011;35735;52.226;21.254;2023-02-14T02:49:27;12.35;;;7.10;;
44987;SDS011;35735;52.226;21.254;2023-02-14T02:54:41;14.57;;;7.28;;
44987;SDS011;35735;52.226;21.254;2023-02-14T02:59:50;11.45;;;7.03;;
44987;SDS011;35735;52.226;21.254;2023-02-14T03:04:56;14.35;;;8.15;;
44987;SDS011;35735;52.226;21.254;2023-02-14T03:10:06;11.95;;;7.40;;
44987;SDS011;35735;52.226;21.254;2023-02-14T03:20:54;14.48;;;8.10;;
44987;SDS011;35735;52.226;21.254;2023-02-14T03:37:07;13.55;;;7.90;;
44987;SDS011;35735;52.226;21.254;2023-02-14T03:42:16;13.52;;;7.87;;
44987;SDS011;35735;52.226;21.254;2023-02-14T03:47:24;16.62;;;8.65;;
44987;SDS011;35735;52.226;21.254;2023-02-14T03:52:30;14.65;;;8.63;;
44987;SDS011;35735;52.226;21.254;2023-02-14T03:57:36;14.50;;;8.77;;
44987;SDS011;35735;52.226;21.254;2023-02-14T04:02:53;13.60;;;8.27;;
44987;SDS011;35735;52.226;21.254;2023-02-14T04:08:00;15.02;;;8.32;;
44987;SDS011;35735;52.226;21.254;2023-02-14T04:13:00;13.02;;;8.52;;
44987;SDS011;35735;52.226;21.254;2023-02-14T04:18:01;16.00;;;8.68;;
44987;SDS011;35735;52.226;21.254;2023-02-14T04:23:02;17.37;;;9.35;;
44987;SDS011;35735;52.226;21.254;2023-02-14T04:28:02;14.38;;;9.00;;
44987;SDS011;35735;52.226;21.254;2023-02-14T04:33:03;14.43;;;9.32;;
44987;SDS011;35735;52.226;21.254;2023-02-14T04:38:04;16.17;;;9.30;;
44987;SDS011;35735;52.226;21.254;2023-02-14T04:43:05;14.85;;;9.15;;
44987;SDS011;35735;52.226;21.254;2023-02-14T04:48:05;13.20;;;9.20;;
44987;SDS011;35735;52.226;21.254;2023-02-14T04:53:06;13.10;;;8.18;;
44987;SDS011;35735;52.226;21.254;2023-02-14T04:58:06;14.55;;;10.00;;
44987;SDS011;35735;52.226;21.254;2023-02-14T05:03:07;14.45;;;9.57;;
44987;SDS011;35735;52.226;21.254;2023-02-14T05:08:08;14.77;;;9.82;;
44987;SDS011;35735;52.226;21.254;2023-02-14T05:13:08;14.77;;;10.18;;
44987;SDS011;35735;52.226;21.254;2023-02-14T05:18:09;16.10;;;10.77;;
44987;SDS011;35735;52.226;21.254;2023-02-14T05:23:09;16.80;;;10.10;;
44987;SDS011;35735;52.226;21.254;2023-02-14T05:28:10;13.57;;;9.40;;
44987;SDS011;35735;52.226;21.254;2023-02-14T05:33:10;15.50;;;10.63;;
44987;SDS011;35735;52.226;21.254;2023-02-14T05:38:13;15.45;;;10.60;;
44987;SDS011;35735;52.226;21.254;2023-02-14T05:43:13;18.95;;;10.10;;
44987;SDS011;35735;52.226;21.254;2023-02-14T05:48:14;14.80;;;10.30;;
44987;SDS011;35735;52.226;21.254;2023-02-14T05:53:14;18.02;;;11.50;;
44987;SDS011;35735;52.226;21.254;2023-02-14T05:58:15;16.20;;;10.82;;
44987;SDS011;35735;52.226;21.254;2023-02-14T06:03:16;16.33;;;10.65;;
44987;SDS011;35735;52.226;21.254;2023-02-14T06:08:16;15.70;;;10.60;;
44987;SDS011;35735;52.226;21.254;2023-02-14T06:13:17;21.48;;;11.30;;
44987;SDS011;35735;52.226;21.254;2023-02-14T06:18:18;18.08;;;11.40;;
44987;SDS011;35735;52.226;21.254;2023-02-14T06:23:18;18.23;;;11.65;;
44987;SDS011;35735;52.226;21.254;2023-02-14T06:28:19;16.20;;;10.48;;
44987;SDS011;35735;52.226;21.254;2023-02-14T06:33:19;16.80;;;10.93;;
44987;SDS011;35735;52.226;21.254;2023-02-14T06:38:20;17.02;;;10.63;;
44987;SDS011;35735;52.226;21.254;2023-02-14T06:43:20;20.20;;;10.82;;
44987;SDS011;35735;52.226;21.254;2023-02-14T06:48:21;17.92;;;11.18;;
44987;SDS011;35735;52.226;21.254;2023-02-14T06:53:21;17.73;;;10.88;;
44987;SDS011;35735;52.226;21.254;2023-02-14T06:58:22;15.70;;;10.55;;
44987;SDS011;35735;52.226;21.254;2023-02-14T07:03:23;15.63;;;10.00;;
44987;SDS011;35735;52.226;21.254;2023-02-14T07:08:24;17.55;;;10.52;;
44987;SDS011;35735;52.226;21.254;2023-02-14T07:13:25;21.00;;;11.93;;
44987;SDS011;35735;52.226;21.254;2023-02-14T07:18:25;18.00;;;11.32;;
44987;SDS011;35735;52.226;21.254;2023-02-14T07:23:26;16.40;;;11.52;;
44987;SDS011;35735;52.226;21.254;2023-02-14T07:28:26;14.52;;;9.95;;
44987;SDS011;35735;52.226;21.254;2023-02-14T07:33:27;16.98;;;10.40;;
44987;SDS011;35735;52.226;21.254;2023-02-14T07:38:28;14.38;;;9.88;;
44987;SDS011;35735;52.226;21.254;2023-02-14T07:43:28;16.20;;;11.12;;
44987;SDS011;35735;52.226;21.254;2023-02-14T07:48:29;20.10;;;11.75;;
44987;SDS011;35735;52.226;21.254;2023-02-14T07:53:30;17.42;;;9.85;;
44987;SDS011;35735;52.226;21.254;2023-02-14T07:58:30;15.82;;;10.52;;
44987;SDS011;35735;52.226;21.254;2023-02-14T08:03:31;19.60;;;10.80;;
44987;SDS011;35735;52.226;21.254;2023-02-14T08:08:31;19.37;;;11.43;;
44987;SDS011;35735;52.226;21.254;2023-02-14T08:13:32;16.55;;;10.70;;
44987;SDS011;35735;52.226;21.254;2023-02-14T08:18:37;20.08;;;11.90;;
44987;SDS011;35735;52.226;21.254;2023-02-14T08:23:40;13.43;;;8.95;;
44987;SDS011;35735;52.226;21.254;2023-02-14T08:28:40;14.43;;;10.27;;
44987;SDS011;35735;52.226;21.254;2023-02-14T08:33:41;21.00;;;11.63;;
44987;SDS011;35735;52.226;21.254;2023-02-14T08:38:42;18.02;;;10.98;;
44987;SDS011;35735;52.226;21.254;2023-02-14T08:43:43;19.50;;;10.43;;
44987;SDS011;35735;52.226;21.254;2023-02-14T08:48:44;13.55;;;9.60;;
44987;SDS011;35735;52.226;21.254;2023-02-14T08:53:45;13.73;;;9.50;;
44987;SDS011;35735;52.226;21.254;2023-02-14T08:58:52;16.52;;;9.40;;
44987;SDS011;35735;52.226;21.254;2023-02-14T09:03:53;14.75;;;9.48;;
44987;SDS011;35735;52.226;21.254;2023-02-14T09:08:53;18.30;;;11.57;;
44987;SDS011;35735;52.226;21.254;2023-02-14T09:13:54;16.35;;;10.55;;
44987;SDS011;35735;52.226;21.254;2023-02-14T09:18:54;17.37;;;10.07;;
44987;SDS011;35735;52.226;21.254;2023-02-14T09:23:55;17.30;;;11.38;;
44987;SDS011;35735;52.226;21.254;2023-02-14T09:28:55;18.75;;;11.55;;
44987;SDS011;35735;52.226;21.254;2023-02-14T09:33:56;13.70;;;10.15;;
44987;SDS011;35735;52.226;21.254;2023-02-14T09:38:57;15.73;;;10.43;;
44987;SDS011;35735;52.226;21.254;2023-02-14T09:43:58;14.60;;;9.55;;
44987;SDS011;35735;52.226;21.254;2023-02-14T09:49:31;14.75;;;9.50;;
44987;SDS011;35735;52.226;21.254;2023-02-14T09:54:35;18.05;;;10.13;;
44987;SDS011;35735;52.226;21.254;2023-02-14T09:59:38;17.92;;;10.07;;
44987;SDS011;35735;52.226;21.254;2023-02-14T10:05:20;16.37;;;10.35;;
44987;SDS011;35735;52.226;21.254;2023-02-14T10:11:04;16.42;;;9.70;;
44987;SDS011;35735;52.226;21.254;2023-02-14T10:16:12;15.65;;;9.00;;
44987;SDS011;35735;52.226;21.254;2023-02-14T10:21:22;15.27;;;9.43;;
44987;SDS011;35735;52.226;21.254;2023-02-14T10:26:35;16.73;;;10.40;;
44987;SDS011;35735;52.226;21.254;2023-02-14T10:31:40;18.35;;;12.45;;
44987;SDS011;35735;52.226;21.254;2023-02-14T10:52:45;13.02;;;9.13;;
44987;SDS011;35735;52.226;21.254;2023-02-14T10:58:03;14.93;;;10.07;;
44987;SDS011;35735;52.226;21.254;2023-02-14T11:03:10;16.67;;;10.40;;
44987;SDS011;35735;52.226;21.254;2023-02-14T11:08:19;21.17;;;12.77;;
44987;SDS011;35735;52.226;21.254;2023-02-14T11:13:30;17.05;;;11.43;;
44987;SDS011;35735;52.226;21.254;2023-02-14T11:18:37;17.20;;;12.77;;
44987;SDS011;35735;52.226;21.254;2023-02-14T11:23:41;19.62;;;12.73;;
44987;SDS011;35735;52.226;21.254;2023-02-14T11:28:48;22.35;;;13.52;;
44987;SDS011;35735;52.226;21.254;2023-02-14T11:33:56;17.15;;;11.98;;
44987;SDS011;35735;52.226;21.254;2023-02-14T11:39:43;19.30;;;12.40;;
44987;SDS011;35735;52.226;21.254;2023-02-14T11:44:33;18.95;;;12.55;;
44987;SDS011;35735;52.226;21.254;2023-02-14T11:49:34;15.80;;;11.10;;
44987;SDS011;35735;52.226;21.254;2023-02-14T11:54:36;19.98;;;11.88;;
44987;SDS011;35735;52.226;21.254;2023-02-14T11:59:40;18.75;;;12.18;;
44987;SDS011;35735;52.226;21.254;2023-02-14T12:04:44;17.67;;;12.55;;
44987;SDS011;35735;52.226;21.254;2023-02-14T12:09:52;18.42;;;11.48;;
44987;SDS011;35735;52.226;21.254;2023-02-14T12:26:05;17.90;;;11.45;;
44987;SDS011;35735;52.226;21.254;2023-02-14T12:31:17;38.45;;;19.85;;
44987;SDS011;35735;52.226;21.254;2023-02-14T12:37:07;27.70;;;15.32;;
44987;SDS011;35735;52.226;21.254;2023-02-14T13:03:55;18.52;;;12.95;;
44987;SDS011;35735;52.226;21.254;2023-02-14T13:09:49;17.27;;;12.57;;
44987;SDS011;35735;52.226;21.254;2023-02-14T13:15:03;15.93;;;11.15;;
44987;SDS011;35735;52.226;21.254;2023-02-14T13:25:54;16.75;;;13.00;;
44987;SDS011;35735;52.226;21.254;2023-02-14T13:31:00;17.80;;;12.63;;
44987;SDS011;35735;52.226;21.254;2023-02-14T13:36:03;19.50;;;13.30;;
44987;SDS011;35735;52.226;21.254;2023-02-14T13:41:07;23.00;;;17.35;;
44987;SDS011;35735;52.226;21.254;2023-02-14T13:46:09;19.10;;;12.90;;
44987;SDS011;35735;52.226;21.254;2023-02-14T13:51:10;15.60;;;12.40;;
44987;SDS011;35735;52.226;21.254;2023-02-14T14:12:03;19.65;;;12.52;;
44987;SDS011;35735;52.226;21.254;2023-02-14T14:17:17;18.67;;;13.05;;
44987;SDS011;35735;52.226;21.254;2023-02-14T14:22:20;19.23;;;13.20;;
44987;SDS011;35735;52.226;21.254;2023-02-14T14:27:26;15.90;;;12.10;;
44987;SDS011;35735;52.226;21.254;2023-02-14T14:32:35;17.95;;;13.13;;
44987;SDS011;35735;52.226;21.254;2023-02-14T14:37:50;19.23;;;12.73;;
44987;SDS011;35735;52.226;21.254;2023-02-14T14:42:54;17.77;;;12.20;;
44987;SDS011;35735;52.226;21.254;2023-02-14T14:48:12;18.87;;;12.60;;
44987;SDS011;35735;52.226;21.254;2023-02-14T14:58:41;17.37;;;12.27;;
44987;SDS011;35735;52.226;21.254;2023-02-14T15:03:42;19.48;;;13.18;;
44987;SDS011;35735;52.226;21.254;2023-02-14T15:08:43;24.08;;;13.57;;
44987;SDS011;35735;52.226;21.254;2023-02-14T15:13:45;16.60;;;11.75;;
44987;SDS011;35735;52.226;21.254;2023-02-14T15:18:50;19.05;;;12.25;;
44987;SDS011;35735;52.226;21.254;2023-02-14T15:23:57;20.95;;;12.25;;
44987;SDS011;35735;52.226;21.254;2023-02-14T15:29:03;21.12;;;12.90;;
44987;SDS011;35735;52.226;21.254;2023-02-14T15:34:05;22.55;;;14.23;;
44987;SDS011;35735;52.226;21.254;2023-02-14T15:39:07;22.75;;;13.43;;
44987;SDS011;35735;52.226;21.254;2023-02-14T15:44:22;23.60;;;14.98;;
44987;SDS011;35735;52.226;21.254;2023-02-14T15:49:29;24.50;;;15.23;;
44987;SDS011;35735;52.226;21.254;2023-02-14T15:54:37;25.05;;;15.82;;
44987;SDS011;35735;52.226;21.254;2023-02-14T15:59:42;23.30;;;14.90;;
44987;SDS011;35735;52.226;21.254;2023-02-14T16:04:43;22.87;;;15.05;;
44987;SDS011;35735;52.226;21.254;2023-02-14T16:09:43;24.92;;;15.60;;
44987;SDS011;35735;52.226;21.254;2023-02-14T16:14:44;22.87;;;15.32;;
44987;SDS011;35735;52.226;21.254;2023-02-14T16:19:45;25.15;;;15.77;;
44987;SDS011;35735;52.226;21.254;2023-02-14T16:24:45;22.40;;;14.27;;
44987;SDS011;35735;52.226;21.254;2023-02-14T16:29:46;21.25;;;13.82;;
44987;SDS011;35735;52.226;21.254;2023-02-14T16:34:46;20.95;;;13.70;;
44987;SDS011;35735;52.226;21.254;2023-02-14T16:39:48;21.55;;;13.00;;
44987;SDS011;35735;52.226;21.254;2023-02-14T16:44:53;19.35;;;13.27;;
44987;SDS011;35735;52.226;21.254;2023-02-14T16:49:54;21.75;;;13.23;;
44987;SDS011;35735;52.226;21.254;2023-02-14T16:54:54;25.98;;;14.55;;
44987;SDS011;35735;52.226;21.254;2023-02-14T16:59:55;22.48;;;16.25;;
44987;SDS011;35735;52.226;21.254;2023-02-14T17:04:56;23.52;;;15.98;;
44987;SDS011;35735;52.226;21.254;2023-02-14T17:09:58;22.17;;;15.07;;
44987;SDS011;35735;52.226;21.254;2023-02-14T17:15:15;19.83;;;14.73;;
44987;SDS011;35735;52.226;21.254;2023-02-14T17:20:19;23.90;;;15.27;;
44987;SDS011;35735;52.226;21.254;2023-02-14T17:25:20;22.85;;;15.90;;
44987;SDS011;35735;52.226;21.254;2023-02-14T17:30:20;27.33;;;18.23;;
44987;SDS011;35735;52.226;21.254;2023-02-14T17:35:21;29.65;;;20.45;;
44987;SDS011;35735;52.226;21.254;2023-02-14T17:40:22;29.05;;;21.23;;
44987;SDS011;35735;52.226;21.254;2023-02-14T17:45:22;32.55;;;21.40;;
44987;SDS011;35735;52.226;21.254;2023-02-14T17:50:23;23.58;;;18.37;;
44987;SDS011;35735;52.226;21.254;2023-02-14T17:55:23;26.50;;;18.23;;
44987;SDS011;35735;52.226;21.254;2023-02-14T18:00:24;24.58;;;17.08;;
44987;SDS011;35735;52.226;21.254;2023-02-14T18:05:24;27.17;;;17.77;;
44987;SDS011;35735;52.226;21.254;2023-02-14T18:10:25;26.00;;;17.98;;
44987;SDS011;35735;52.226;21.254;2023-02-14T18:15:26;21.92;;;17.23;;
44987;SDS011;35735;52.226;21.254;2023-02-14T18:20:26;23.73;;;17.92;;
44987;SDS011;35735;52.226;21.254;2023-02-14T18:25:27;28.62;;;18.05;;
44987;SDS011;35735;52.226;21.254;2023-02-14T18:30:27;25.90;;;18.83;;
44987;SDS011;35735;52.226;21.254;2023-02-14T18:35:28;28.35;;;20.37;;
44987;SDS011;35735;52.226;21.254;2023-02-14T18:40:28;30.40;;;20.40;;
44987;SDS011;35735;52.226;21.254;2023-02-14T18:45:29;30.98;;;21.92;;
44987;SDS011;35735;52.226;21.254;2023-02-14T18:50:30;31.60;;;22.35;;
44987;SDS011;35735;52.226;21.254;2023-02-14T18:55:32;29.87;;;21.35;;
44987;SDS011;35735;52.226;21.254;2023-02-14T19:00:33;30.05;;;22.13;;
44987;SDS011;35735;52.226;21.254;2023-02-14T19:05:36;28.23;;;21.00;;
44987;SDS011;35735;52.226;21.254;2023-02-14T19:10:37;32.10;;;21.33;;
44987;SDS011;35735;52.226;21.254;2023-02-14T19:15:37;28.77;;;21.23;;
44987;SDS011;35735;52.226;21.254;2023-02-14T19:20:38;30.23;;;20.52;;
44987;SDS011;35735;52.226;21.254;2023-02-14T19:25:38;32.78;;;22.08;;
44987;SDS011;35735;52.226;21.254;2023-02-14T19:30:39;33.25;;;23.10;;
44987;SDS011;35735;52.226;21.254;2023-02-14T19:35:39;34.90;;;22.87;;
44987;SDS011;35735;52.226;21.254;2023-02-14T19:40:42;31.27;;;22.00;;
44987;SDS011;35735;52.226;21.254;2023-02-14T19:45:43;29.12;;;20.77;;
44987;SDS011;35735;52.226;21.254;2023-02-14T19:50:43;35.88;;;22.20;;
44987;SDS011;35735;52.226;21.254;2023-02-14T19:55:44;32.00;;;24.05;;
44987;SDS011;35735;52.226;21.254;2023-02-14T20:00:45;34.55;;;22.75;;
44987;SDS011;35735;52.226;21.254;2023-02-14T20:05:56;33.83;;;24.42;;
44987;SDS011;35735;52.226;21.254;2023-02-14T20:10:56;32.65;;;22.50;;
44987;SDS011;35735;52.226;21.254;2023-02-14T20:15:57;33.25;;;22.87;;
44987;SDS011;35735;52.226;21.254;2023-02-14T20:20:57;30.55;;;22.13;;
44987;SDS011;35735;52.226;21.254;2023-02-14T20:25:58;36.33;;;23.23;;
44987;SDS011;35735;52.226;21.254;2023-02-14T20:30:58;35.47;;;23.38;;
44987;SDS011;35735;52.226;21.254;2023-02-14T20:35:59;39.13;;;25.27;;
44987;SDS011;35735;52.226;21.254;2023-02-14T20:41:04;48.40;;;25.25;;
44987;SDS011;35735;52.226;21.254;2023-02-14T20:46:06;42.72;;;25.45;;
44987;SDS011;35735;52.226;21.254;2023-02-14T20:51:10;44.70;;;29.15;;
44987;SDS011;35735;52.226;21.254;2023-02-14T20:56:14;54.65;;;32.83;;
44987;SDS011;35735;52.226;21.254;2023-02-14T21:01:19;56.40;;;36.30;;
44987;SDS011;35735;52.226;21.254;2023-02-14T21:06:23;46.70;;;30.45;;
44987;SDS011;35735;52.226;21.254;2023-02-14T21:11:27;41.97;;;27.00;;
44987;SDS011;35735;52.226;21.254;2023-02-14T21:16:28;49.85;;;29.37;;
44987;SDS011;35735;52.226;21.254;2023-02-14T21:21:30;56.92;;;32.42;;
44987;SDS011;35735;52.226;21.254;2023-02-14T21:26:33;58.80;;;31.58;;
44987;SDS011;35735;52.226;21.254;2023-02-14T21:31:34;52.83;;;31.85;;
44987;SDS011;35735;52.226;21.254;2023-02-14T21:36:35;53.78;;;32.33;;
44987;SDS011;35735;52.226;21.254;2023-02-14T21:41:36;50.97;;;32.17;;
44987;SDS011;35735;52.226;21.254;2023-02-14T21:46:37;49.25;;;32.33;;
44987;SDS011;35735;52.226;21.254;2023-02-14T21:51:38;43.17;;;29.73;;
44987;SDS011;35735;52.226;21.254;2023-02-14T21:56:39;39.42;;;27.20;;
44987;SDS011;35735;52.226;21.254;2023-02-14T22:01:40;38.67;;;25.17;;
44987;SDS011;35735;52.226;21.254;2023-02-14T22:06:41;31.73;;;23.02;;
44987;SDS011;35735;52.226;21.254;2023-02-14T22:11:42;37.35;;;24.35;;
44987;SDS011;35735;52.226;21.254;2023-02-14T22:16:42;34.30;;;23.95;;
44987;SDS011;35735;52.226;21.254;2023-02-14T22:21:43;38.08;;;23.98;;
44987;SDS011;35735;52.226;21.254;2023-02-14T22:26:44;34.88;;;23.65;;
44987;SDS011;35735;52.226;21.254;2023-02-14T22:31:44;34.05;;;23.27;;
44987;SDS011;35735;52.226;21.254;2023-02-14T22:36:45;33.20;;;23.27;;
44987;SDS011;35735;52.226;21.254;2023-02-14T22:41:46;37.30;;;24.08;;
44987;SDS011;35735;52.226;21.254;2023-02-14T22:46:46;36.38;;;24.58;;
44987;SDS011;35735;52.226;21.254;2023-02-14T22:51:47;36.10;;;23.73;;
44987;SDS011;35735;52.226;21.254;2023-02-14T22:56:48;34.65;;;25.08;;
44987;SDS011;35735;52.226;21.254;2023-02-14T23:01:50;34.42;;;24.73;;
44987;SDS011;35735;52.226;21.254;2023-02-14T23:06:52;37.88;;;24.90;;
44987;SDS011;35735;52.226;21.254;2023-02-14T23:11:53;37.13;;;24.92;;
44987;SDS011;35735;52.226;21.254;2023-02-14T23:16:53;35.88;;;25.10;;
44987;SDS011;35735;52.226;21.254;2023-02-14T23:21:54;34.63;;;24.42;;
44987;SDS011;35735;52.226;21.254;2023-02-14T23:26:54;37.65;;;25.30;;
44987;SDS011;35735;52.226;21.254;2023-02-14T23:31:55;36.95;;;24.98;;
44987;SDS011;35735;52.226;21.254;2023-02-14T23:36:56;39.97;;;26.98;;
44987;SDS011;35735;52.226;21.254;2023-02-14T23:41:57;40.17;;;25.98;;
44987;SDS011;35735;52.226;21.254;2023-02-14T23:46:58;38.45;;;25.92;;
44987;SDS011;35735;52.226;21.254;2023-02-14T23:52:02;42.92;;;26.50;;
44987;SDS011;35735;52.226;21.254;2023-02-14T23:57:06;37.47;;;26.87;;
